createdAt,value
2019-06-20T00:01:13.575Z,12.37
2019-06-20T00:03:41.470Z,14.15
2019-06-20T00:06:10.343Z,12.60
2019-06-20T00:08:39.285Z,12.93
2019-06-20T00:11:06.998Z,14.03
2019-06-20T00:13:35.813Z,13.85
2019-06-20T00:16:04.696Z,14.05
2019-06-20T00:18:33.403Z,16.12
2019-06-20T00:21:03.936Z,13.50
2019-06-20T00:23:32.611Z,13.30
2019-06-20T00:26:00.555Z,14.55
2019-06-20T00:28:28.353Z,14.63
2019-06-20T00:30:55.943Z,15.00
2019-06-20T00:33:23.753Z,14.13
2019-06-20T00:35:51.343Z,14.03
2019-06-20T00:38:18.995Z,14.83
2019-06-20T00:40:46.615Z,15.50
2019-06-20T00:43:17.808Z,14.43
2019-06-20T00:45:45.103Z,13.62
2019-06-20T00:48:12.911Z,15.53
2019-06-20T00:50:40.502Z,15.53
2019-06-20T00:53:08.240Z,14.60
2019-06-20T00:55:36.225Z,18.77
2019-06-20T00:58:04.126Z,14.00
2019-06-20T01:00:31.925Z,15.50
2019-06-20T01:02:59.719Z,14.28
2019-06-20T01:05:27.596Z,13.72
2019-06-20T01:07:55.442Z,15.43
2019-06-20T01:10:23.444Z,14.55
2019-06-20T01:12:51.268Z,14.75
2019-06-20T01:15:20.097Z,16.15
2019-06-20T01:17:47.838Z,20.90
2019-06-20T01:20:16.306Z,15.65
2019-06-20T01:22:44.321Z,14.75
2019-06-20T01:25:12.873Z,20.27
2019-06-20T01:27:40.893Z,16.73
2019-06-20T01:30:10.808Z,16.40
2019-06-20T01:32:38.643Z,18.32
2019-06-20T01:35:08.931Z,19.40
2019-06-20T01:37:36.844Z,18.27
2019-06-20T01:40:05.967Z,20.30
2019-06-20T01:42:33.789Z,19.77
2019-06-20T01:45:01.772Z,21.52
2019-06-20T01:47:29.535Z,21.17
2019-06-20T01:49:57.758Z,21.48
2019-06-20T01:52:25.364Z,21.80
2019-06-20T01:54:53.162Z,18.77
2019-06-20T01:57:23.497Z,20.92
2019-06-20T01:59:51.347Z,18.90
2019-06-20T02:02:19.258Z,20.40
2019-06-20T02:04:47.051Z,20.97
2019-06-20T02:07:15.137Z,19.62
2019-06-20T02:09:44.048Z,24.10
2019-06-20T02:12:11.657Z,22.20
2019-06-20T02:14:40.567Z,22.98
2019-06-20T02:17:08.402Z,22.02
2019-06-20T02:19:36.304Z,27.50
2019-06-20T02:22:04.377Z,26.55
2019-06-20T02:24:32.060Z,27.45
2019-06-20T02:26:59.937Z,25.05
2019-06-20T02:29:27.868Z,28.85
2019-06-20T02:31:56.171Z,26.27
2019-06-20T02:34:23.943Z,31.40
2019-06-20T02:36:56.348Z,28.23
2019-06-20T02:39:24.170Z,27.80
2019-06-20T02:41:51.985Z,26.75
2019-06-20T02:44:30.075Z,30.12
2019-06-20T02:46:49.348Z,22.02
2019-06-20T02:49:19.397Z,21.15
2019-06-20T02:51:47.920Z,27.35
2019-06-20T02:54:15.622Z,21.97
2019-06-20T02:56:43.275Z,20.65
2019-06-20T02:59:11.213Z,22.48
2019-06-20T03:01:41.065Z,24.60
2019-06-20T03:04:11.507Z,21.82
2019-06-20T03:06:45.806Z,23.92
2019-06-20T03:09:17.007Z,24.47
2019-06-20T03:11:44.792Z,23.20
2019-06-20T03:14:12.739Z,25.25
2019-06-20T03:16:40.543Z,21.65
2019-06-20T03:19:08.459Z,21.82
2019-06-20T03:21:37.035Z,23.50
2019-06-20T03:24:05.114Z,21.10
2019-06-20T03:26:32.896Z,21.50
2019-06-20T03:29:01.537Z,23.10
2019-06-20T03:31:29.417Z,22.20
2019-06-20T03:33:57.277Z,23.60
2019-06-20T03:36:24.889Z,18.40
2019-06-20T03:38:52.650Z,21.65
2019-06-20T03:41:20.438Z,23.10
2019-06-20T03:43:48.364Z,19.42
2019-06-20T03:46:16.178Z,21.02
2019-06-20T03:48:43.788Z,19.82
2019-06-20T03:51:11.501Z,19.70
2019-06-20T03:53:39.380Z,19.52
2019-06-20T03:56:07.364Z,23.62
2019-06-20T03:58:35.289Z,21.20
2019-06-20T04:01:04.240Z,18.62
2019-06-20T04:03:32.564Z,20.02
2019-06-20T04:06:03.278Z,21.70
2019-06-20T04:08:31.123Z,21.45
2019-06-20T04:10:58.914Z,25.17
2019-06-20T04:13:26.869Z,22.42
2019-06-20T04:15:54.672Z,24.25
2019-06-20T04:18:23.342Z,23.25
2019-06-20T04:20:51.266Z,22.15
2019-06-20T04:23:19.062Z,27.05
2019-06-20T04:25:47.410Z,27.10
2019-06-20T04:28:15.412Z,27.35
2019-06-20T04:30:44.393Z,25.68
2019-06-20T04:33:12.189Z,32.23
2019-06-20T04:35:40.096Z,25.10
2019-06-20T04:38:08.803Z,28.75
2019-06-20T04:40:36.807Z,25.15
2019-06-20T04:43:04.494Z,26.20
2019-06-20T04:45:51.942Z,24.77
2019-06-20T04:48:19.886Z,30.95
2019-06-20T04:50:48.257Z,27.73
2019-06-20T04:53:16.021Z,30.88
2019-06-20T04:55:44.037Z,32.78
2019-06-20T04:58:12.961Z,27.50
2019-06-20T05:00:40.939Z,25.27
2019-06-20T05:03:08.572Z,26.20
2019-06-20T05:05:36.568Z,26.00
2019-06-20T05:08:04.567Z,26.70
2019-06-20T05:10:34.840Z,26.35
2019-06-20T05:13:03.036Z,28.90
2019-06-20T05:15:30.968Z,30.57
2019-06-20T05:17:59.260Z,28.30
2019-06-20T05:20:27.115Z,28.35
2019-06-20T05:22:54.990Z,32.50
2019-06-20T05:25:22.848Z,27.20
2019-06-20T05:27:51.079Z,29.65
2019-06-20T05:30:19.827Z,30.65
2019-06-20T05:32:47.639Z,29.52
2019-06-20T05:35:15.611Z,25.90
2019-06-20T05:37:43.480Z,27.20
2019-06-20T05:40:11.414Z,27.87
2019-06-20T05:42:39.119Z,26.40
2019-06-20T05:45:07.440Z,33.23
2019-06-20T05:47:35.378Z,28.53
2019-06-20T05:50:07.262Z,30.93
2019-06-20T05:52:35.125Z,32.57
2019-06-20T05:55:03.438Z,31.00
2019-06-20T05:57:32.768Z,31.10
2019-06-20T06:00:00.935Z,27.43
2019-06-20T06:02:29.018Z,29.47
2019-06-20T06:04:56.885Z,28.23
2019-06-20T06:07:28.472Z,25.80
2019-06-20T06:09:56.683Z,25.67
2019-06-20T06:12:24.571Z,29.13
2019-06-20T06:14:53.394Z,28.90
2019-06-20T06:17:22.347Z,28.27
2019-06-20T06:19:50.228Z,28.47
2019-06-20T06:22:18.295Z,31.97
2019-06-20T06:24:45.891Z,26.53
2019-06-20T06:27:14.652Z,26.20
2019-06-20T06:29:42.227Z,32.87
2019-06-20T06:32:10.012Z,34.47
2019-06-20T06:34:37.755Z,28.97
2019-06-20T06:37:05.377Z,26.57
2019-06-20T06:39:33.176Z,28.30
2019-06-20T06:42:01.053Z,27.73
2019-06-20T06:44:31.676Z,29.77
2019-06-20T06:47:00.569Z,26.77
2019-06-20T06:49:29.572Z,28.60
2019-06-20T06:51:57.413Z,28.53
2019-06-20T06:54:27.280Z,27.90
2019-06-20T06:56:58.509Z,26.97
2019-06-20T06:59:26.256Z,25.20
2019-06-20T07:01:54.618Z,24.27
2019-06-20T07:04:22.408Z,26.10
2019-06-20T07:06:51.174Z,26.10
2019-06-20T07:09:19.202Z,23.80
2019-06-20T07:11:46.909Z,27.63
2019-06-20T07:14:14.696Z,24.00
2019-06-20T07:16:50.873Z,22.73
2019-06-20T07:19:12.954Z,20.93
2019-06-20T07:21:41.682Z,22.20
2019-06-20T07:24:09.506Z,22.23
2019-06-20T07:26:37.294Z,21.47
2019-06-20T07:29:05.289Z,19.20
2019-06-20T07:31:34.769Z,20.97
2019-06-20T07:34:02.594Z,21.70
2019-06-20T07:36:30.428Z,21.27
2019-06-20T07:38:58.319Z,20.40
2019-06-20T07:41:25.920Z,20.40
2019-06-20T07:43:55.877Z,21.17
2019-06-20T07:46:23.530Z,20.53
2019-06-20T07:48:51.392Z,20.43
2019-06-20T07:51:22.157Z,23.43
2019-06-20T07:53:49.743Z,23.47
2019-06-20T07:56:17.426Z,21.80
2019-06-20T07:58:46.984Z,20.20
2019-06-20T08:01:14.571Z,19.40
2019-06-20T08:03:45.199Z,22.17
2019-06-20T08:06:12.987Z,18.70
2019-06-20T08:08:41.576Z,19.27
2019-06-20T08:11:12.439Z,18.63
2019-06-20T08:13:40.328Z,19.73
2019-06-20T08:16:08.027Z,18.33
2019-06-20T08:18:35.650Z,19.30
2019-06-20T08:21:03.670Z,18.90
2019-06-20T08:23:31.578Z,17.33
2019-06-20T08:26:02.427Z,17.83
2019-06-20T08:28:30.430Z,16.47
2019-06-20T08:30:58.988Z,18.73
2019-06-20T08:33:27.359Z,18.57
2019-06-20T08:35:56.961Z,17.00
2019-06-20T08:38:24.707Z,17.13
2019-06-20T08:40:52.563Z,15.90
2019-06-20T08:43:20.480Z,17.70
2019-06-20T08:45:48.471Z,14.60
2019-06-20T08:48:16.228Z,17.07
2019-06-20T08:50:44.186Z,16.10
2019-06-20T08:53:11.988Z,14.23
2019-06-20T08:55:39.873Z,14.87
2019-06-20T08:58:15.882Z,15.07
2019-06-20T09:00:44.183Z,15.80
2019-06-20T09:03:12.040Z,13.97
2019-06-20T09:05:39.816Z,13.63
2019-06-20T09:08:11.282Z,14.90
2019-06-20T09:10:40.390Z,12.50
2019-06-20T09:13:10.889Z,12.43
2019-06-20T09:15:38.890Z,12.00
2019-06-20T09:18:07.260Z,10.53
2019-06-20T09:20:36.607Z,11.23
2019-06-20T09:23:05.217Z,10.37
2019-06-20T09:25:33.142Z,9.93
2019-06-20T09:28:02.607Z,10.07
2019-06-20T09:30:30.477Z,11.80
2019-06-20T09:32:59.957Z,11.00
2019-06-20T09:35:29.823Z,8.67
2019-06-20T09:37:59.194Z,8.47
2019-06-20T09:40:29.400Z,8.90
2019-06-20T09:42:57.076Z,10.13
2019-06-20T09:45:26.641Z,8.90
2019-06-20T09:47:56.027Z,9.13
2019-06-20T09:50:26.836Z,9.00
2019-06-20T09:52:56.603Z,10.10
2019-06-20T09:55:26.653Z,9.33
2019-06-20T09:57:55.920Z,8.70
2019-06-20T10:00:25.359Z,9.13
2019-06-20T10:02:55.413Z,9.30
2019-06-20T10:05:24.048Z,8.73
2019-06-20T10:07:54.754Z,9.27
2019-06-20T10:10:29.024Z,9.60
2019-06-20T10:12:57.182Z,10.37
2019-06-20T10:15:29.301Z,9.87
2019-06-20T10:17:57.274Z,8.80
2019-06-20T10:20:27.615Z,9.10
2019-06-20T10:22:55.131Z,10.53
2019-06-20T10:25:29.541Z,11.80
2019-06-20T10:27:57.995Z,12.13
2019-06-20T10:30:28.404Z,13.33
2019-06-20T10:32:57.799Z,12.23
2019-06-20T10:35:26.029Z,12.50
2019-06-20T10:37:53.643Z,10.63
2019-06-20T10:40:23.165Z,10.97
2019-06-20T10:42:52.759Z,11.63
2019-06-20T10:45:21.515Z,11.93
2019-06-20T10:47:50.914Z,10.63
2019-06-20T10:50:20.843Z,12.43
2019-06-20T10:52:51.865Z,11.37
2019-06-20T10:55:21.568Z,12.70
2019-06-20T10:57:49.974Z,12.07
2019-06-20T11:00:30.103Z,11.30
2019-06-20T11:02:49.239Z,10.17
2019-06-20T11:05:17.367Z,11.73
2019-06-20T11:07:45.606Z,10.50
2019-06-20T11:10:15.613Z,10.43
2019-06-20T11:12:52.233Z,12.63
2019-06-20T11:15:13.820Z,11.20
2019-06-20T11:17:41.955Z,11.93
2019-06-20T11:20:12.366Z,11.07
2019-06-20T11:22:41.530Z,11.00
2019-06-20T11:25:11.845Z,11.23
2019-06-20T11:27:40.512Z,10.60
2019-06-20T11:30:09.490Z,10.27
2019-06-20T11:32:38.233Z,11.13
2019-06-20T11:35:07.308Z,10.33
2019-06-20T11:37:36.366Z,10.80
2019-06-20T11:40:07.558Z,10.90
2019-06-20T11:42:36.065Z,10.93
2019-06-20T11:45:06.979Z,10.40
2019-06-20T11:47:36.515Z,11.40
2019-06-20T11:50:04.946Z,10.40
2019-06-20T11:52:38.090Z,11.60
2019-06-20T11:55:04.328Z,13.50
2019-06-20T11:57:32.003Z,11.80
2019-06-20T12:00:01.644Z,11.53
2019-06-20T12:02:29.386Z,11.93
2019-06-20T12:05:01.378Z,11.30
2019-06-20T12:07:30.192Z,18.83
2019-06-20T12:10:02.046Z,19.00
2019-06-20T12:12:29.599Z,18.73
2019-06-20T12:14:57.339Z,13.90
2019-06-20T12:17:25.119Z,11.37
2019-06-20T12:19:54.403Z,13.37
2019-06-20T12:22:22.007Z,11.83
2019-06-20T12:24:50.627Z,14.00
2019-06-20T12:27:18.354Z,11.07
2019-06-20T12:29:49.874Z,11.43
2019-06-20T12:32:20.522Z,9.83
2019-06-20T12:34:49.058Z,10.73
2019-06-20T12:37:16.714Z,10.53
2019-06-20T12:39:44.504Z,11.43
2019-06-20T12:42:12.451Z,11.90
2019-06-20T12:44:41.702Z,14.60
2019-06-20T12:47:09.344Z,13.93
2019-06-20T12:49:38.528Z,16.23
2019-06-20T12:52:07.571Z,14.30
2019-06-20T12:54:35.907Z,13.10
2019-06-20T12:57:03.819Z,14.27
2019-06-20T12:59:31.626Z,14.37
2019-06-20T13:01:59.458Z,12.60
2019-06-20T13:04:27.066Z,13.50
2019-06-20T13:06:55.872Z,12.40
2019-06-20T13:09:26.301Z,12.63
2019-06-20T13:11:54.323Z,14.17
2019-06-20T13:14:22.424Z,13.77
2019-06-20T13:16:50.383Z,20.60
2019-06-20T13:19:19.236Z,15.13
2019-06-20T13:21:46.911Z,14.07
2019-06-20T13:24:15.768Z,14.47
2019-06-20T13:26:43.919Z,10.90
2019-06-20T13:29:12.163Z,11.90
2019-06-20T13:31:54.834Z,11.10
2019-06-20T13:34:09.549Z,14.10
2019-06-20T13:36:47.005Z,13.73
2019-06-20T13:39:15.052Z,14.00
2019-06-20T13:41:43.176Z,14.73
2019-06-20T13:44:11.209Z,14.17
2019-06-20T13:46:40.068Z,15.33
2019-06-20T13:49:08.961Z,12.00
2019-06-20T13:51:39.905Z,12.60
2019-06-20T13:54:07.577Z,13.57
2019-06-20T13:56:35.482Z,12.23
2019-06-20T13:59:03.689Z,13.20
2019-06-20T14:01:49.648Z,10.95
2019-06-20T14:04:17.573Z,11.55
2019-06-20T14:06:45.533Z,9.77
2019-06-20T14:09:13.690Z,9.30
2019-06-20T14:11:43.152Z,9.60
2019-06-20T14:14:11.520Z,7.80
2019-06-20T14:16:43.024Z,8.87
2019-06-20T14:19:11.339Z,9.67
2019-06-20T14:21:39.158Z,9.30
2019-06-20T14:24:06.985Z,10.27
2019-06-20T14:26:34.892Z,10.70
2019-06-20T14:29:05.632Z,11.60
2019-06-20T14:31:33.544Z,10.93
2019-06-20T14:34:01.307Z,9.87
2019-06-20T14:36:29.288Z,10.93
2019-06-20T14:38:56.882Z,9.90
2019-06-20T14:41:24.575Z,10.60
2019-06-20T14:43:52.357Z,10.90
2019-06-20T14:46:20.351Z,10.40
2019-06-20T14:48:48.497Z,12.17
2019-06-20T14:51:17.651Z,10.97
2019-06-20T14:53:47.148Z,13.20
2019-06-20T14:56:17.572Z,10.30
2019-06-20T14:58:46.604Z,12.73
2019-06-20T15:01:15.667Z,11.83
2019-06-20T15:03:45.560Z,13.10
2019-06-20T15:06:13.021Z,15.63
2019-06-20T15:08:40.829Z,10.77
2019-06-20T15:11:11.800Z,12.23
2019-06-20T15:13:38.239Z,11.60
2019-06-20T15:16:07.376Z,11.97
2019-06-20T15:18:35.221Z,16.10
2019-06-20T15:21:03.099Z,11.03
2019-06-20T15:23:30.994Z,11.13
2019-06-20T15:26:00.049Z,10.03
2019-06-20T15:28:27.859Z,11.50
2019-06-20T15:30:57.309Z,10.53
2019-06-20T15:33:25.667Z,9.53
2019-06-20T15:35:55.232Z,10.40
2019-06-20T15:38:26.752Z,15.33
2019-06-20T15:40:57.626Z,10.83
2019-06-20T15:43:25.754Z,9.93
2019-06-20T15:45:56.455Z,10.80
2019-06-20T15:48:25.594Z,9.13
2019-06-20T15:50:56.062Z,9.70
2019-06-20T15:53:24.213Z,10.47
2019-06-20T15:55:52.081Z,8.23
2019-06-20T15:58:19.926Z,9.20
2019-06-20T16:00:47.757Z,10.33
2019-06-20T16:03:15.656Z,9.10
2019-06-20T16:05:43.481Z,9.37
2019-06-20T16:08:11.794Z,10.20
2019-06-20T16:10:39.634Z,9.17
2019-06-20T16:13:10.594Z,8.93
2019-06-20T16:15:38.218Z,8.93
2019-06-20T16:18:06.155Z,8.30
2019-06-20T16:20:34.055Z,9.53
2019-06-20T16:23:01.878Z,8.93
2019-06-20T16:25:29.761Z,9.90
2019-06-20T16:27:57.558Z,9.97
2019-06-20T16:30:25.711Z,9.60
2019-06-20T16:32:53.713Z,10.90
2019-06-20T16:35:21.724Z,9.73
2019-06-20T16:37:50.638Z,8.77
2019-06-20T16:40:26.943Z,10.60
2019-06-20T16:42:54.660Z,9.30
2019-06-20T16:45:22.642Z,8.50
2019-06-20T16:47:50.383Z,11.60
2019-06-20T16:50:18.303Z,9.60
2019-06-20T16:52:46.947Z,8.10
2019-06-20T16:55:16.157Z,8.87
2019-06-20T16:57:43.871Z,10.07
2019-06-20T17:00:13.737Z,10.10
2019-06-20T17:02:41.692Z,8.93
2019-06-20T17:05:10.254Z,8.60
2019-06-20T17:07:41.716Z,8.50
2019-06-20T17:10:11.396Z,9.50
2019-06-20T17:12:40.470Z,9.37
2019-06-20T17:15:08.803Z,8.10
2019-06-20T17:17:36.669Z,7.87
2019-06-20T17:20:04.824Z,7.73
2019-06-20T17:22:38.581Z,8.17
2019-06-20T17:25:08.008Z,8.00
2019-06-20T17:27:36.268Z,8.70
2019-06-20T17:30:06.333Z,8.83
2019-06-20T17:32:36.805Z,9.53
2019-06-20T17:35:06.044Z,9.40
2019-06-20T17:37:34.663Z,8.97
2019-06-20T17:40:03.449Z,10.10
2019-06-20T17:42:31.223Z,10.07
2019-06-20T17:44:59.179Z,10.40
2019-06-20T17:47:27.109Z,11.53
2019-06-20T17:49:54.864Z,10.77
2019-06-20T17:52:22.764Z,12.23
2019-06-20T17:54:50.622Z,10.60
2019-06-20T17:57:18.463Z,11.60
2019-06-20T17:59:46.333Z,11.80
2019-06-20T18:02:15.014Z,11.97
2019-06-20T18:04:45.776Z,12.90
2019-06-20T18:07:13.755Z,11.90
2019-06-20T18:09:41.559Z,11.37
2019-06-20T18:12:10.979Z,12.20
2019-06-20T18:14:38.882Z,14.50
2019-06-20T18:17:06.831Z,13.47
2019-06-20T18:19:34.634Z,13.83
2019-06-20T18:22:02.482Z,13.50
2019-06-20T18:24:32.994Z,15.27
2019-06-20T18:27:02.877Z,11.60
2019-06-20T18:29:33.380Z,13.30
2019-06-20T18:32:03.385Z,12.10
2019-06-20T18:34:31.171Z,13.70
2019-06-20T18:36:59.086Z,13.83
2019-06-20T18:39:26.982Z,13.40
2019-06-20T18:41:54.583Z,14.20
2019-06-20T18:44:22.695Z,14.77
2019-06-20T18:46:53.610Z,19.93
2019-06-20T18:49:29.490Z,14.70
2019-06-20T18:51:57.708Z,14.47
2019-06-20T18:54:25.648Z,14.30
2019-06-20T18:56:55.884Z,17.03
2019-06-20T18:59:27.068Z,16.90
2019-06-20T19:01:56.462Z,16.10
2019-06-20T19:04:24.926Z,17.67
2019-06-20T19:07:01.311Z,15.23
2019-06-20T19:09:29.315Z,15.53
2019-06-20T19:11:58.331Z,16.50
2019-06-20T19:14:27.081Z,17.60
2019-06-20T19:16:54.948Z,14.10
2019-06-20T19:19:22.787Z,15.30
2019-06-20T19:21:50.563Z,14.60
2019-06-20T19:24:20.529Z,15.63
2019-06-20T19:26:49.254Z,14.40
2019-06-20T19:29:17.176Z,16.10
2019-06-20T19:31:44.904Z,18.47
2019-06-20T19:34:12.855Z,16.53
2019-06-20T19:36:40.685Z,16.83
2019-06-20T19:39:08.951Z,19.10
2019-06-20T19:41:39.182Z,24.63
2019-06-20T19:44:10.824Z,18.00
2019-06-20T19:46:38.723Z,18.30
2019-06-20T19:49:06.727Z,20.03
2019-06-20T19:51:37.044Z,16.57
2019-06-20T19:54:08.272Z,16.20
2019-06-20T19:56:45.503Z,17.40
2019-06-20T19:59:13.765Z,20.50
2019-06-20T20:01:41.575Z,19.97
2019-06-20T20:04:09.588Z,19.87
2019-06-20T20:06:37.628Z,18.40
2019-06-20T20:09:06.937Z,19.43
2019-06-20T20:11:36.288Z,17.40
2019-06-20T20:14:05.381Z,18.33
2019-06-20T20:16:33.587Z,17.17
2019-06-20T20:19:01.769Z,16.13
2019-06-20T20:21:29.851Z,17.20
2019-06-20T20:23:57.523Z,15.67
2019-06-20T20:26:25.654Z,16.13
2019-06-20T20:28:53.296Z,20.53
2019-06-20T20:31:21.224Z,19.10
2019-06-20T20:33:48.970Z,17.92
2019-06-20T20:36:25.038Z,18.87
2019-06-20T20:38:47.242Z,16.67
2019-06-20T20:41:15.910Z,18.32
2019-06-20T20:43:43.778Z,18.70
2019-06-20T20:46:11.789Z,21.97
2019-06-20T20:48:40.488Z,19.12
2019-06-20T20:51:08.213Z,18.25
2019-06-20T20:53:36.066Z,20.90
2019-06-20T20:56:04.042Z,21.10
2019-06-20T20:58:32.207Z,19.57
2019-06-20T21:01:28.657Z,19.62
2019-06-20T21:03:57.593Z,18.90
2019-06-20T21:06:25.390Z,19.27
2019-06-20T21:08:53.269Z,21.00
2019-06-20T21:11:20.994Z,20.33
2019-06-20T21:13:58.189Z,19.32
2019-06-20T21:16:26.652Z,17.92
2019-06-20T21:18:55.707Z,18.85
2019-06-20T21:21:23.514Z,18.27
2019-06-20T21:23:51.531Z,19.50
2019-06-20T21:26:20.984Z,18.20
2019-06-20T21:28:48.840Z,17.23
2019-06-20T21:31:18.723Z,18.25
2019-06-20T21:33:46.878Z,17.10
2019-06-20T21:36:15.694Z,18.80
2019-06-20T21:38:44.797Z,19.70
2019-06-20T21:41:12.592Z,17.92
2019-06-20T21:43:40.201Z,18.85
2019-06-20T21:46:07.951Z,19.55
2019-06-20T21:48:37.124Z,17.92
2019-06-20T21:51:05.690Z,19.12
2019-06-20T21:53:35.241Z,19.57
2019-06-20T21:56:04.189Z,18.92
2019-06-20T21:58:32.281Z,20.43
2019-06-20T22:01:02.592Z,18.17
2019-06-20T22:03:33.433Z,20.55
2019-06-20T22:06:01.207Z,19.80
2019-06-20T22:08:29.408Z,24.12
2019-06-20T22:10:58.117Z,19.35
2019-06-20T22:13:28.869Z,18.45
2019-06-20T22:15:56.799Z,18.30
2019-06-20T22:18:25.776Z,19.45
2019-06-20T22:20:53.700Z,18.82
2019-06-20T22:23:21.542Z,21.65
2019-06-20T22:25:52.241Z,22.85
2019-06-20T22:28:19.863Z,21.87
2019-06-20T22:30:53.011Z,21.77
2019-06-20T22:33:20.958Z,18.62
2019-06-20T22:35:49.251Z,18.07
2019-06-20T22:38:16.916Z,18.45
2019-06-20T22:40:47.508Z,18.87
2019-06-20T22:43:15.205Z,18.10
2019-06-20T22:45:44.943Z,17.82
2019-06-20T22:48:13.319Z,18.00
2019-06-20T22:50:43.237Z,19.23
2019-06-20T22:53:14.059Z,20.00
2019-06-20T22:55:43.081Z,19.00
2019-06-20T22:58:11.074Z,19.57
2019-06-20T23:00:39.271Z,19.52
2019-06-20T23:03:07.063Z,20.55
2019-06-20T23:05:40.458Z,20.08
2019-06-20T23:08:18.662Z,22.82
2019-06-20T23:10:46.624Z,20.35
2019-06-20T23:13:14.993Z,21.35
2019-06-20T23:15:42.775Z,22.20
2019-06-20T23:18:10.667Z,23.32
2019-06-20T23:20:38.477Z,22.87
2019-06-20T23:23:06.377Z,21.00
2019-06-20T23:25:39.563Z,22.48
2019-06-20T23:28:07.543Z,20.20
2019-06-20T23:30:35.388Z,20.75
2019-06-20T23:33:06.844Z,19.60
2019-06-20T23:35:34.720Z,19.50
2019-06-20T23:38:02.710Z,19.20
2019-06-20T23:40:30.541Z,18.55
2019-06-20T23:42:58.191Z,20.23
2019-06-20T23:45:35.925Z,19.75
2019-06-20T23:48:06.623Z,19.60
2019-06-20T23:50:35.866Z,18.12
2019-06-20T23:53:12.766Z,18.65
2019-06-20T23:55:43.252Z,20.02
2019-06-20T23:58:11.305Z,18.95
